Time;durP1;ratioP1;P1;durP2;ratioP2;P2;SDS_P1;SDS_P2;PMS_P1;PMS_P2;Temp;Humidity;BMP_temperature;BMP_pressure;BME280_temperature;BME280_humidity;BME280_pressure;Samples;Min_cycle;Max_cycle;Signal;HPM_P1;HPM_P2
2022/11/02 00:00:12;;;;;;;19.20;3.10;;;;;;;13.23;100.00;101209.91;5043531;28;20033;-74
2022/11/02 00:02:37;;;;;;;17.85;3.15;;;;;;;13.25;100.00;101215.19;5044360;28;20029;-72
2022/11/02 00:05:03;;;;;;;19.35;3.10;;;;;;;13.25;100.00;101213.44;5043253;28;20530;-73
2022/11/02 00:07:28;;;;;;;16.92;2.90;;;;;;;13.33;100.00;101216.09;5044870;28;20025;-73
2022/11/02 00:09:53;;;;;;;16.80;3.03;;;;;;;13.28;100.00;101209.00;5042546;28;20025;-72
2022/11/02 00:12:19;;;;;;;13.82;2.70;;;;;;;13.29;100.00;101218.75;5045380;28;20021;-73
2022/11/02 00:14:44;;;;;;;18.90;3.05;;;;;;;13.37;100.00;101206.41;5042789;28;20072;-73
2022/11/02 00:17:09;;;;;;;16.25;3.10;;;;;;;13.40;100.00;101217.00;5044092;28;20457;-73
2022/11/02 00:19:34;;;;;;;18.05;2.83;;;;;;;13.43;100.00;101211.69;5043892;28;20029;-73
2022/11/02 00:22:01;;;;;;;15.13;2.90;;;;;;;13.41;100.00;101213.44;5043091;28;20018;-72
2022/11/02 00:24:27;;;;;;;15.73;2.80;;;;;;;13.37;100.00;101219.69;5045157;28;20072;-73
2022/11/02 00:26:53;;;;;;;16.15;2.53;;;;;;;13.52;100.00;101208.13;5041960;28;20064;-72
2022/11/02 00:29:20;;;;;;;16.58;2.70;;;;;;;13.47;100.00;101215.22;5045108;28;20021;-73
2022/11/02 00:31:45;;;;;;;16.17;2.60;;;;;;;13.55;100.00;101219.63;5042286;28;20079;-73
2022/11/02 00:34:11;;;;;;;17.95;2.90;;;;;;;13.58;100.00;101214.31;5043896;28;20365;-73
2022/11/02 00:36:36;;;;;;;17.98;2.90;;;;;;;13.66;100.00;101211.66;5043664;28;20036;-73
2022/11/02 00:39:01;;;;;;;21.77;3.13;;;;;;;13.54;100.00;101232.91;5042510;28;20028;-72
2022/11/02 00:41:27;;;;;;;18.42;3.08;;;;;;;13.51;100.00;101215.19;5044550;28;20078;-73
2022/11/02 00:43:52;;;;;;;19.08;2.95;;;;;;;13.45;100.00;101232.94;5041936;28;20376;-73
2022/11/02 00:46:19;;;;;;;15.80;2.80;;;;;;;13.45;100.00;101230.28;5044723;28;20025;-73
2022/11/02 00:48:44;;;;;;;17.90;2.85;;;;;;;13.38;100.00;101232.94;5042366;28;20043;-73
2022/11/02 00:51:09;;;;;;;19.70;3.13;;;;;;;13.32;100.00;101216.97;5043596;28;20025;-72
2022/11/02 00:53:35;;;;;;;18.52;3.08;;;;;;;13.27;100.00;101239.13;5042944;28;20104;-72
2022/11/02 00:56:00;;;;;;;16.13;2.83;;;;;;;13.07;100.00;101234.69;5042315;28;20241;-73
2022/11/02 00:58:25;;;;;;;18.45;2.83;;;;;;;13.02;100.00;101234.69;5044926;28;20375;-72
2022/11/02 01:00:50;;;;;;;16.88;2.80;;;;;;;12.97;100.00;101232.91;5041048;28;20081;-73
2022/11/02 01:03:16;;;;;;;18.77;3.17;;;;;;;12.99;100.00;101239.09;5044083;28;20486;-68
2022/11/02 01:05:41;;;;;;;15.50;2.80;;;;;;;12.94;100.00;101235.56;5042564;28;20094;-71
2022/11/02 01:08:06;;;;;;;14.73;2.83;;;;;;;12.91;100.00;101252.38;5043007;28;20021;-69
2022/11/02 01:10:32;;;;;;;14.07;2.92;;;;;;;12.84;100.00;101240.88;5043574;28;20024;-70
2022/11/02 01:12:57;;;;;;;16.42;2.80;;;;;;;12.81;100.00;101243.50;5041477;28;20021;-69
2022/11/02 01:15:22;;;;;;;16.02;2.60;;;;;;;12.80;100.00;101257.66;5044629;28;20060;-70
2022/11/02 01:17:48;;;;;;;12.25;2.50;;;;;;;12.69;100.00;101254.97;5041490;28;20029;-70
2022/11/02 01:20:13;;;;;;;17.65;2.83;;;;;;;12.71;100.00;101279.75;5043524;28;20113;-68
2022/11/02 01:22:39;;;;;;;17.00;2.72;;;;;;;12.71;100.00;101266.50;5042540;28;20060;-69
2022/11/02 01:25:04;;;;;;;14.45;2.70;;;;;;;12.68;100.00;101257.63;5042149;28;20148;-70
2022/11/02 01:27:29;;;;;;;15.10;2.65;;;;;;;12.61;100.00;101274.41;5043799;28;20461;-68
2022/11/02 01:29:55;;;;;;;16.65;2.80;;;;;;;12.50;100.00;101262.00;5041105;28;20025;-70
2022/11/02 01:32:21;;;;;;;19.60;3.13;;;;;;;12.47;100.00;101266.44;5037298;28;20082;-70
2022/11/02 01:34:46;;;;;;;17.27;3.05;;;;;;;12.48;100.00;101274.38;5043980;28;20029;-70
2022/11/02 01:37:11;;;;;;;17.38;2.50;;;;;;;12.43;100.00;101270.81;5041875;28;20475;-65
2022/11/02 01:39:37;;;;;;;13.00;2.70;;;;;;;12.37;100.00;101281.41;5042499;28;20030;-69
2022/11/02 01:42:02;;;;;;;16.42;2.70;;;;;;;12.25;100.00;101271.63;5043074;28;20527;-70
2022/11/02 01:44:33;;;;;;;13.88;2.63;;;;;;;12.23;100.00;101262.78;5041030;28;20428;-70
2022/11/02 01:47:07;;;;;;;17.30;2.90;;;;;;;12.14;100.00;101274.22;5043726;28;20384;-69
2022/11/02 01:49:36;;;;;;;17.35;2.70;;;;;;;12.11;100.00;101294.53;5041614;28;20029;-69
2022/11/02 01:52:08;;;;;;;16.23;2.65;;;;;;;12.15;100.00;101286.59;5043156;28;20023;-60
2022/11/02 01:54:41;;;;;;;16.38;2.75;;;;;;;12.14;100.00;101274.22;5042012;28;20037;-63
2022/11/02 01:57:11;;;;;;;14.82;2.75;;;;;;;12.20;100.00;101295.47;5042645;28;20027;-62
2022/11/02 02:00:06;;;;;;;14.40;2.40;;;;;;;12.23;100.00;101283.09;5042209;28;20033;-63
2022/11/02 02:02:35;;;;;;;14.18;2.47;;;;;;;12.23;100.00;101283.09;5038846;28;20083;-63
2022/11/02 02:05:07;;;;;;;15.73;2.45;;;;;;;12.29;100.00;101284.03;5044066;28;20049;-61
2022/11/02 02:07:36;;;;;;;17.35;2.67;;;;;;;12.27;100.00;101291.06;5045761;28;20026;-63
2022/11/02 02:10:03;;;;;;;16.13;2.70;;;;;;;12.27;100.00;101290.19;5047058;28;20480;-62
2022/11/02 02:12:30;;;;;;;15.10;2.78;;;;;;;12.16;100.00;101268.97;5044577;28;20049;-63
2022/11/02 02:14:56;;;;;;;19.60;2.80;;;;;;;12.08;100.00;101302.47;5047645;28;20096;-63
2022/11/02 02:17:55;;;;;;;13.82;2.42;;;;;;;12.05;100.00;101275.97;5040347;28;20512;-63
2022/11/02 02:20:36;;;;;;;16.83;2.70;;;;;;;12.08;100.00;101268.03;5044354;28;20064;-63
2022/11/02 02:23:23;;;;;;;17.00;2.85;;;;;;;11.86;100.00;101289.94;5042488;28;20167;-63
2022/11/02 02:26:19;;;;;;;16.02;2.75;;;;;;;11.86;100.00;101295.25;5044254;28;20037;-62
2022/11/02 02:29:01;;;;;;;17.80;3.00;;;;;;;11.89;100.00;101290.84;5045705;28;20108;-63
2022/11/02 02:31:39;;;;;;;14.55;2.53;;;;;;;11.79;100.00;101298.72;5040859;28;20472;-62
2022/11/02 02:34:07;;;;;;;17.45;2.70;;;;;;;11.78;100.00;101286.38;5046462;28;20025;-62
2022/11/02 02:36:42;;;;;;;17.40;2.60;;;;;;;11.78;100.00;101286.38;5044785;28;20037;-62
2022/11/02 02:39:13;;;;;;;19.58;3.20;;;;;;;11.31;100.00;101289.56;5045728;28;20021;-63
2022/11/02 02:41:52;;;;;;;15.60;2.42;;;;;;;11.06;100.00;101286.69;5045414;28;20032;-63
2022/11/02 02:44:23;;;;;;;17.95;2.90;;;;;;;11.19;100.00;101292.97;5044278;28;20061;-63
2022/11/02 02:47:20;;;;;;;20.10;2.85;;;;;;;11.32;100.00;101301.91;5046938;28;20472;-63
2022/11/02 02:49:53;;;;;;;17.80;3.05;;;;;;;11.47;100.00;101301.16;5023491;28;20046;-69
2022/11/02 02:52:21;;;;;;;18.52;2.78;;;;;;;11.45;100.00;101309.09;5022112;28;20362;-69
2022/11/02 02:54:47;;;;;;;17.60;2.80;;;;;;;11.54;100.00;101296.81;5024444;28;20041;-70
2022/11/02 02:57:17;;;;;;;17.92;3.03;;;;;;;11.55;100.00;101298.56;5022633;28;20037;-70
2022/11/02 02:59:45;;;;;;;18.60;2.90;;;;;;;11.50;100.00;101304.72;5023559;28;20097;-70
2022/11/02 03:02:24;;;;;;;18.92;2.92;;;;;;;11.55;100.00;101301.19;5022860;28;20052;-70
2022/11/02 03:04:49;;;;;;;16.77;3.00;;;;;;;11.60;100.00;101308.31;5024408;28;20041;-70
2022/11/02 03:07:22;;;;;;;18.65;3.03;;;;;;;11.48;100.00;101313.53;5022088;28;20444;-70
2022/11/02 03:10:19;;;;;;;16.73;2.90;;;;;;;11.55;100.00;101299.47;5024333;28;20025;-70
2022/11/02 03:13:06;;;;;;;18.45;2.97;;;;;;;11.68;100.00;101314.56;4926928;29;20048;-70
2022/11/02 03:15:40;;;;;;;20.30;3.00;;;;;;;11.59;100.00;101310.94;4924506;29;20539;-70
2022/11/02 03:18:25;;;;;;;18.02;2.67;;;;;;;11.56;100.00;101310.94;4926353;29;20035;-70
2022/11/02 03:21:09;;;;;;;17.98;2.65;;;;;;;11.58;100.00;101314.50;4927612;29;20051;-70
2022/11/02 03:23:38;;;;;;;21.13;3.10;;;;;;;11.49;100.00;101321.47;4925345;29;20511;-70
2022/11/02 03:26:12;;;;;;;19.33;3.05;;;;;;;11.52;100.00;101313.56;4936409;28;20180;-70
2022/11/02 03:28:37;;;;;;;16.58;3.05;;;;;;;11.62;100.00;101327.75;4963907;28;20043;-70
2022/11/02 03:31:20;;;;;;;18.98;3.15;;;;;;;11.64;100.00;101322.47;4964848;28;20033;-70
2022/11/02 03:33:52;;;;;;;20.15;3.35;;;;;;;11.79;100.00;101335.81;4964918;28;20474;-70
2022/11/02 03:36:21;;;;;;;18.65;3.15;;;;;;;11.84;100.00;101339.38;4963005;28;20035;-68
2022/11/02 03:38:53;;;;;;;17.40;2.70;;;;;;;11.86;100.00;101334.97;4965204;28;20122;-70
2022/11/02 03:41:22;;;;;;;20.02;3.30;;;;;;;11.73;100.00;101335.78;4962504;28;20142;-69
2022/11/02 03:43:50;;;;;;;19.52;2.90;;;;;;;11.69;100.00;101328.66;4964697;28;20390;-70
2022/11/02 03:46:17;;;;;;;19.73;3.30;;;;;;;11.68;100.00;101343.69;4963075;28;20049;-69
2022/11/02 03:48:46;;;;;;;20.50;3.08;;;;;;;11.64;100.00;101354.25;5017325;28;20034;-69
2022/11/02 03:51:14;;;;;;;21.15;3.17;;;;;;;11.64;100.00;101348.94;5043940;28;20104;-71
2022/11/02 03:53:48;;;;;;;17.23;3.20;;;;;;;11.62;100.00;101348.03;5044620;28;20029;-67
2022/11/02 03:56:30;;;;;;;20.58;3.22;;;;;;;11.68;100.00;101342.81;5043520;28;20124;-68
2022/11/02 03:58:56;;;;;;;18.27;3.05;;;;;;;11.63;100.00;101356.00;5038755;28;20025;-70
2022/11/02 04:01:21;;;;;;;20.85;3.10;;;;;;;11.52;100.00;101368.28;5045339;28;20099;-70
2022/11/02 04:03:47;;;;;;;20.95;3.60;;;;;;;11.54;100.00;101363.88;5043203;28;20503;-70
2022/11/02 04:06:13;;;;;;;19.75;3.20;;;;;;;11.52;100.00;101378.88;5044239;28;20029;-70
2022/11/02 04:08:44;;;;;;;19.77;3.10;;;;;;;11.49;100.00;101368.25;5043934;28;20533;-70
2022/11/02 04:16:43;;;;;;;23.10;3.28;;;;;;;11.62;100.00;101379.81;5000456;28;20485;-70
2022/11/02 04:19:27;;;;;;;21.73;3.30;;;;;;;11.57;100.00;101371.84;5002136;28;20109;-70
2022/11/02 04:27:21;;;;;;;22.67;3.50;;;;;;;11.55;100.00;101391.22;5003245;28;20045;-70
2022/11/02 04:29:48;;;;;;;20.25;3.20;;;;;;;11.47;100.00;101409.69;5000828;28;20034;-67
2022/11/02 04:32:13;;;;;;;23.30;3.38;;;;;;;11.50;100.00;101402.69;5002394;28;20065;-70
2022/11/02 04:34:38;;;;;;;18.77;3.70;;;;;;;11.41;100.00;101391.13;5001840;28;20068;-70
2022/11/02 04:38:39;;;;;;;21.30;3.05;;;;;;;11.39;100.00;101414.91;5000933;28;20169;-71
2022/11/02 04:39:49;;;;;;;20.45;3.70;;;;;;;11.27;100.00;101414.78;5000405;28;20128;-70
2022/11/02 04:42:14;;;;;;;20.15;3.20;;;;;;;11.29;100.00;101428.94;5004135;28;20030;-70
2022/11/02 04:44:39;;;;;;;22.88;3.30;;;;;;;11.32;100.00;101426.31;5003749;28;20198;-71
2022/11/02 04:47:05;;;;;;;20.38;3.30;;;;;;;11.28;100.00;101435.97;5003887;28;20594;-70
2022/11/02 04:49:30;;;;;;;19.85;3.67;;;;;;;11.39;100.00;101441.38;4987785;28;20095;-70
2022/11/02 04:51:55;;;;;;;21.55;3.20;;;;;;;11.34;100.00;101438.69;5003670;28;20022;-70
2022/11/02 04:54:21;;;;;;;19.38;3.33;;;;;;;11.30;100.00;101449.22;5027422;28;20412;-70
2022/11/02 04:56:46;;;;;;;21.35;3.47;;;;;;;11.29;100.00;101444.81;5042368;28;20107;-71
2022/11/02 04:59:12;;;;;;;20.83;3.38;;;;;;;11.29;100.00;101452.75;5043128;28;20109;-68
2022/11/02 05:01:37;;;;;;;19.52;3.20;;;;;;;11.32;100.00;101434.25;5043037;28;20098;-71
2022/11/02 05:04:03;;;;;;;20.38;3.40;;;;;;;11.43;100.00;101443.22;5042026;28;20025;-70
2022/11/02 05:06:28;;;;;;;20.23;3.20;;;;;;;11.37;100.00;101451.06;5044692;28;20017;-69
2022/11/02 05:08:54;;;;;;;19.73;3.28;;;;;;;11.40;100.00;101474.94;5041375;28;20044;-69
2022/11/02 05:11:19;;;;;;;20.42;3.42;;;;;;;11.40;100.00;101463.44;5044097;28;20021;-70
2022/11/02 05:13:45;;;;;;;20.38;3.50;;;;;;;11.47;100.00;101441.47;5042164;28;20491;-70
2022/11/02 05:16:13;;;;;;;20.75;3.40;;;;;;;11.48;100.00;101465.31;5042670;28;20064;-70
2022/11/02 05:18:38;;;;;;;21.92;3.58;;;;;;;11.42;100.00;101473.19;5043193;28;20029;-69
2022/11/02 05:21:04;;;;;;;20.85;3.30;;;;;;;11.46;100.00;101484.69;5041698;28;20479;-70
2022/11/02 05:23:29;;;;;;;21.15;3.35;;;;;;;11.36;100.00;101494.31;5044500;28;20017;-70
2022/11/02 05:25:58;;;;;;;19.63;3.53;;;;;;;11.22;100.00;101490.59;5040863;28;20090;-70
2022/11/02 05:28:24;;;;;;;19.15;3.13;;;;;;;11.07;100.00;101492.19;5036664;28;20037;-70
2022/11/02 05:30:49;;;;;;;18.67;3.10;;;;;;;11.08;100.00;101496.63;5043759;28;20495;-70
2022/11/02 05:33:15;;;;;;;17.85;3.00;;;;;;;11.13;100.00;101502.84;5041818;28;20057;-70
2022/11/02 05:35:41;;;;;;;20.88;3.28;;;;;;;11.13;100.00;101512.56;5042674;28;20131;-70
2022/11/02 05:38:06;;;;;;;20.58;3.58;;;;;;;11.07;100.00;101496.59;5043318;28;20097;-70
2022/11/02 05:40:32;;;;;;;23.02;3.50;;;;;;;11.06;100.00;101532.75;5045196;28;20029;-69
2022/11/02 05:43:01;;;;;;;17.92;2.90;;;;;;;11.16;100.00;101539.03;5048304;28;20103;-69
2022/11/02 05:45:26;;;;;;;21.30;3.45;;;;;;;11.18;100.00;101541.72;5041319;28;20567;-70
2022/11/02 05:47:52;;;;;;;19.38;2.80;;;;;;;11.08;100.00;101520.44;5048183;28;20063;-68
2022/11/02 05:50:19;;;;;;;19.98;3.17;;;;;;;11.01;100.00;101544.13;5044158;28;20041;-62
2022/11/02 05:52:44;;;;;;;19.67;3.20;;;;;;;10.85;100.00;101543.03;5046962;28;20465;-63
2022/11/02 05:55:09;;;;;;;19.23;3.17;;;;;;;10.71;100.00;101534.91;5046511;28;20021;-63
2022/11/02 05:57:35;;;;;;;21.77;3.13;;;;;;;10.76;100.00;101538.47;5045334;28;20079;-62
2022/11/02 06:00:00;;;;;;;19.77;3.13;;;;;;;10.69;100.00;101542.81;5046729;28;20060;-63
2022/11/02 06:02:25;;;;;;;17.42;3.00;;;;;;;10.59;100.00;101548.81;5044190;28;20049;-62
2022/11/02 06:04:51;;;;;;;21.52;3.40;;;;;;;10.53;100.00;101549.63;5047685;28;20079;-62
2022/11/02 06:07:16;;;;;;;18.65;3.00;;;;;;;10.52;100.00;101562.81;5045686;28;20070;-62
2022/11/02 06:09:42;;;;;;;20.95;3.17;;;;;;;10.48;100.00;101560.97;5046343;28;20033;-62
2022/11/02 06:12:07;;;;;;;18.45;3.25;;;;;;;10.38;100.00;101568.78;5046781;28;20025;-62
2022/11/02 06:14:32;;;;;;;17.42;3.00;;;;;;;10.33;100.00;101559.81;5044859;28;20431;-63
2022/11/02 06:16:57;;;;;;;20.35;3.03;;;;;;;10.48;100.00;101567.16;5047465;28;20053;-63
2022/11/02 06:19:23;;;;;;;20.10;3.28;;;;;;;10.48;100.00;101574.19;5044448;28;20022;-63
2022/11/02 06:21:48;;;;;;;19.52;3.15;;;;;;;10.42;100.00;101573.22;5047201;28;20037;-63
2022/11/02 06:24:14;;;;;;;21.23;3.20;;;;;;;10.43;100.00;101584.69;5045349;28;20087;-63
2022/11/02 06:26:58;;;;;;;22.27;3.20;;;;;;;10.32;100.00;101592.41;5046017;28;20029;-64
2022/11/02 06:29:23;;;;;;;21.67;3.25;;;;;;;10.18;100.00;101599.19;5045427;28;20025;-61
2022/11/02 06:31:49;;;;;;;17.60;2.92;;;;;;;10.20;100.00;101605.41;5048259;28;20035;-59
2022/11/02 06:34:14;;;;;;;19.20;2.85;;;;;;;10.18;100.00;101612.41;5049072;28;20053;-61
2022/11/02 06:36:39;;;;;;;21.65;3.50;;;;;;;10.11;100.00;101612.28;5042393;28;20029;-61
2022/11/02 06:39:05;;;;;;;20.95;3.47;;;;;;;10.05;100.00;101609.53;5048666;28;20021;-61
2022/11/02 06:41:30;;;;;;;22.27;3.30;;;;;;;10.00;100.00;101619.13;5046682;28;20079;-60
2022/11/02 06:43:55;;;;;;;19.60;3.20;;;;;;;9.99;100.00;101635.84;5047365;28;20358;-61
2022/11/02 06:46:21;;;;;;;21.40;3.58;;;;;;;9.97;100.00;101642.84;5049269;28;20559;-60
2022/11/02 06:48:47;;;;;;;20.50;3.35;;;;;;;9.95;100.00;101653.38;5052758;28;20027;-60
2022/11/02 06:51:12;;;;;;;20.67;3.58;;;;;;;9.86;100.00;101658.47;5046482;28;20028;-60
2022/11/02 06:53:38;;;;;;;20.10;3.45;;;;;;;9.92;100.00;101658.59;5048701;28;20017;-60
2022/11/02 06:56:03;;;;;;;19.88;3.22;;;;;;;9.94;100.00;101669.19;5046807;28;20515;-60
2022/11/02 06:58:29;;;;;;;21.00;3.20;;;;;;;9.93;100.00;101685.88;5046893;28;20104;-59
2022/11/02 07:01:00;;;;;;;19.75;3.10;;;;;;;9.92;100.00;101694.69;5046679;28;20345;-61
2022/11/02 07:03:26;;;;;;;19.58;3.00;;;;;;;9.91;100.00;101693.78;5045105;28;20044;-60
2022/11/02 07:05:52;;;;;;;18.77;3.15;;;;;;;9.92;100.00;101694.69;5049027;28;20035;-60
2022/11/02 07:08:18;;;;;;;19.65;2.97;;;;;;;9.88;100.00;101698.13;5049184;28;20021;-60
2022/11/02 07:10:43;;;;;;;23.88;3.20;;;;;;;9.94;100.00;101706.16;5046742;28;20029;-60
2022/11/02 07:13:09;;;;;;;19.85;3.05;;;;;;;9.98;100.00;101712.41;5046585;28;20017;-59
2022/11/02 07:15:34;;;;;;;21.08;3.35;;;;;;;10.01;100.00;101721.28;5046527;28;20389;-60
2022/11/02 07:17:59;;;;;;;20.60;3.35;;;;;;;9.98;100.00;101729.16;5044711;28;20091;-60
2022/11/02 07:20:25;;;;;;;18.85;3.03;;;;;;;9.93;100.00;101738.72;5047898;28;20567;-60
2022/11/02 07:22:55;;;;;;;19.02;2.92;;;;;;;9.98;100.00;101745.00;5044566;28;20220;-59
2022/11/02 07:25:20;;;;;;;19.23;3.13;;;;;;;9.99;100.00;101746.78;5045648;28;20064;-60
2022/11/02 07:27:46;;;;;;;19.52;3.15;;;;;;;10.03;100.00;101746.00;5041236;28;20072;-60
2022/11/02 07:30:11;;;;;;;21.55;3.20;;;;;;;10.04;100.00;101762.72;5045928;28;20033;-60
2022/11/02 07:32:41;;;;;;;20.63;3.17;;;;;;;10.07;100.00;101753.09;5046467;28;20028;-60
2022/11/02 07:35:08;;;;;;;22.65;3.42;;;;;;;10.08;100.00;101749.63;5046820;28;20477;-60
2022/11/02 07:37:34;;;;;;;17.63;2.95;;;;;;;10.09;100.00;101759.34;5044567;28;20025;-60
2022/11/02 07:39:59;;;;;;;19.52;3.17;;;;;;;10.07;100.00;101763.69;5047396;28;20434;-61
2022/11/02 07:42:25;;;;;;;20.98;3.38;;;;;;;10.07;100.00;101768.97;5046728;28;20021;-60
2022/11/02 07:44:50;;;;;;;18.80;3.08;;;;;;;10.16;100.00;101762.09;5045816;28;20028;-60
2022/11/02 07:47:15;;;;;;;20.83;3.13;;;;;;;10.18;100.00;101777.13;5043291;28;20515;-61
2022/11/02 07:49:40;;;;;;;20.85;3.50;;;;;;;10.20;100.00;101771.88;5046933;28;20511;-60
2022/11/02 07:52:06;;;;;;;20.77;3.60;;;;;;;10.24;100.00;101776.38;5038503;28;20045;-61
2022/11/02 07:54:31;;;;;;;20.85;3.10;;;;;;;10.33;100.00;101776.53;5040496;28;20103;-60
2022/11/02 07:56:56;;;;;;;21.50;3.30;;;;;;;10.35;100.00;101785.41;5043301;28;20028;-63
2022/11/02 07:59:22;;;;;;;21.35;3.08;;;;;;;10.45;100.00;101784.72;5049581;28;20029;-62
2022/11/02 08:01:47;;;;;;;20.63;3.20;;;;;;;10.52;100.00;101788.41;5046338;28;20055;-61
2022/11/02 08:04:12;;;;;;;19.73;3.15;;;;;;;10.66;100.00;101790.41;5047238;28;20091;-60
2022/11/02 08:06:38;;;;;;;21.80;3.38;;;;;;;10.64;100.00;101785.09;5043959;28;20057;-61
2022/11/02 08:09:03;;;;;;;18.98;2.85;;;;;;;10.68;100.00;101792.22;5045573;28;20049;-60
2022/11/02 08:11:28;;;;;;;19.75;2.90;;;;;;;10.78;100.00;101786.25;5045794;28;20075;-62
2022/11/02 08:13:54;;;;;;;21.52;3.30;;;;;;;10.88;100.00;101797.91;5043170;28;20441;-62
2022/11/02 08:16:19;;;;;;;21.77;3.40;;;;;;;10.94;100.00;101794.47;5034922;28;20108;-60
2022/11/02 08:18:44;;;;;;;22.27;3.15;;;;;;;10.97;100.00;101799.81;5032187;28;20029;-60
2022/11/02 08:21:09;;;;;;;20.42;3.05;;;;;;;11.08;100.00;101810.59;5034598;28;20025;-61
2022/11/02 08:23:35;;;;;;;19.70;3.15;;;;;;;11.18;100.00;101801.06;5034184;28;20033;-60
2022/11/02 08:26:00;;;;;;;21.48;3.45;;;;;;;11.25;100.00;101798.53;5034455;28;20112;-63
2022/11/02 08:28:38;;;;;;;20.73;3.63;;;;;;;11.29;100.00;101810.06;5031930;28;20472;-61
2022/11/02 08:31:06;;;;;;;20.67;3.50;;;;;;;11.39;100.00;101806.72;5038035;28;20114;-62
2022/11/02 08:33:31;;;;;;;19.67;3.20;;;;;;;11.43;100.00;101802.34;5045955;28;20029;-62
2022/11/02 08:36:02;;;;;;;20.95;3.40;;;;;;;11.41;100.00;101815.56;5045645;28;20113;-62
2022/11/02 08:38:27;;;;;;;17.90;3.08;;;;;;;11.49;100.00;101821.00;5045137;28;20025;-63
2022/11/02 08:40:54;;;;;;;20.83;3.30;;;;;;;11.59;100.00;101824.66;5045213;28;20025;-63
2022/11/02 08:43:19;;;;;;;19.30;3.30;;;;;;;11.67;100.00;101825.69;5046374;28;20439;-63
2022/11/02 08:45:44;;;;;;;21.25;3.35;;;;;;;11.73;100.00;101825.78;5044326;28;20108;-63
2022/11/02 08:48:10;;;;;;;21.23;3.53;;;;;;;11.84;100.00;101825.94;5045008;28;20021;-63
2022/11/02 08:50:35;;;;;;;20.85;3.63;;;;;;;11.73;100.00;101827.53;5041474;28;20029;-62
2022/11/02 08:53:01;;;;;;;21.83;3.17;;;;;;;11.69;100.00;101829.22;5042843;28;20025;-63
2022/11/02 08:55:26;;;;;;;20.80;3.47;;;;;;;11.81;100.00;101832.09;5043789;28;20024;-63
2022/11/02 08:57:54;;;;;;;21.70;3.10;;;;;;;11.77;100.00;101824.94;5041806;28;20084;-63
2022/11/02 09:00:22;;;;;;;21.38;3.15;;;;;;;11.86;100.00;101835.69;5044793;28;20028;-63
2022/11/02 09:03:05;;;;;;;21.67;3.50;;;;;;;11.94;100.00;101834.94;5037359;28;20056;-63
2022/11/02 09:05:37;;;;;;;23.05;3.25;;;;;;;11.92;100.00;101844.59;5040563;28;20481;-63
2022/11/02 09:08:05;;;;;;;19.17;3.30;;;;;;;12.06;100.00;101844.81;5043050;28;20379;-63
2022/11/02 09:10:33;;;;;;;19.38;3.28;;;;;;;12.20;100.00;101845.91;5042542;28;20068;-63
2022/11/02 09:12:59;;;;;;;21.45;3.58;;;;;;;12.31;100.00;101838.97;5043100;28;20061;-63
2022/11/02 09:15:26;;;;;;;19.55;3.20;;;;;;;12.31;100.00;101838.97;5041336;28;20029;-63
2022/11/02 09:17:51;;;;;;;20.08;3.22;;;;;;;12.37;100.00;101838.19;5044386;28;20036;-71
2022/11/02 09:20:18;;;;;;;22.75;3.13;;;;;;;12.49;100.00;101833.00;5040947;28;20385;-70
2022/11/02 09:22:44;;;;;;;24.08;3.53;;;;;;;12.77;100.00;101854.59;5042437;28;20507;-71
2022/11/02 09:25:10;;;;;;;17.65;3.10;;;;;;;12.80;100.00;101856.34;5044450;28;20051;-61
2022/11/02 09:27:36;;;;;;;18.98;3.28;;;;;;;12.66;100.00;101862.41;5046359;28;20060;-61
2022/11/02 09:30:03;;;;;;;20.27;3.20;;;;;;;12.72;100.00;101861.59;5041486;28;20060;-61
2022/11/02 09:32:32;;;;;;;21.00;3.55;;;;;;;12.68;100.00;101865.06;5042139;28;20124;-60
2022/11/02 09:34:57;;;;;;;19.85;3.50;;;;;;;12.87;100.00;101871.47;5043313;28;20477;-63
2022/11/02 09:37:23;;;;;;;18.63;3.00;;;;;;;13.11;100.00;101848.75;5043754;28;20028;-62
2022/11/02 09:39:48;;;;;;;18.13;3.10;;;;;;;13.22;100.00;101861.25;5045867;28;20021;-63
2022/11/02 09:42:38;;;;;;;22.55;3.85;;;;;;;13.02;100.00;101876.97;5043638;28;20052;-61
2022/11/02 09:45:12;;;;;;;19.60;3.40;;;;;;;12.93;100.00;101863.59;5043337;28;20033;-62
2022/11/02 09:47:52;;;;;;;21.20;3.42;;;;;;;12.70;100.00;101863.34;5042029;28;20444;-73
2022/11/02 09:50:22;;;;;;;24.05;3.50;;;;;;;12.82;100.00;101867.91;5037830;28;20017;-74
2022/11/02 09:52:57;;;;;;;19.95;3.28;;;;;;;13.25;100.00;101874.53;5047022;28;20399;-69
2022/11/02 09:55:29;;;;;;;20.92;3.50;;;;;;;13.37;100.00;101879.09;5045103;28;20028;-69
2022/11/02 09:58:02;;;;;;;19.38;3.25;;;;;;;13.36;100.00;101873.78;5047821;28;20112;-73
2022/11/02 10:00:31;;;;;;;21.95;3.92;;;;;;;13.61;99.96;101885.50;5042283;28;20032;-71
2022/11/02 10:03:35;;;;;;;20.98;3.20;;;;;;;13.94;94.94;101876.91;5046091;28;20129;-70
2022/11/02 10:06:09;;;;;;;18.33;3.13;;;;;;;14.42;88.45;101879.84;5042973;28;20464;-72
2022/11/02 10:08:58;;;;;;;21.92;3.30;;;;;;;14.28;86.78;101898.41;5042787;28;20100;-76
2022/11/02 10:11:45;;;;;;;18.58;3.17;;;;;;;14.52;83.71;101896.75;5040091;28;20472;-71
2022/11/02 10:14:18;;;;;;;18.65;3.13;;;;;;;14.60;77.61;101888.78;5041321;28;20018;-70
2022/11/02 10:16:51;;;;;;;19.90;3.15;;;;;;;14.73;79.99;101905.72;5044540;28;20098;-73
2022/11/02 10:19:20;;;;;;;21.55;3.42;;;;;;;15.05;75.27;101912.94;5041136;28;20495;-72
2022/11/02 10:21:49;;;;;;;19.88;3.22;;;;;;;15.23;71.54;101909.41;5044346;28;20104;-71
2022/11/02 10:24:42;;;;;;;18.90;3.13;;;;;;;15.01;73.04;101905.81;5043590;28;20034;-72
2022/11/02 10:27:28;;;;;;;;;;;;;;;15.46;72.97;101914.78;5047792;28;20028;-69
2022/11/02 10:29:58;;;;;;;21.27;3.00;;;;;;;15.81;67.82;101913.94;5043927;28;19913;-74
2022/11/02 10:32:24;;;;;;;18.20;3.00;;;;;;;16.41;61.29;101897.84;5046025;28;20053;-72
2022/11/02 10:34:50;;;;;;;16.25;2.80;;;;;;;16.45;60.11;101904.91;5048209;28;20431;-72
2022/11/02 10:37:29;;;;;;;18.42;3.17;;;;;;;16.23;60.56;101897.88;5048115;28;20376;-71
2022/11/02 10:40:12;;;;;;;18.73;2.85;;;;;;;16.01;61.24;101908.59;5042815;28;20042;-73
2022/11/02 10:43:04;;;;;;;19.48;3.10;;;;;;;16.85;60.90;101909.22;5044179;28;20030;-72
2022/11/02 10:45:39;;;;;;;18.77;2.78;;;;;;;16.87;57.16;101910.09;5044241;28;20033;-72
2022/11/02 10:48:34;;;;;;;20.88;3.30;;;;;;;16.88;59.55;101914.59;5044618;28;20434;-70
2022/11/02 10:51:08;;;;;;;18.98;3.05;;;;;;;17.22;54.92;101914.38;5044168;28;20075;-74
2022/11/02 10:53:42;;;;;;;19.33;3.22;;;;;;;17.93;54.05;101921.88;5044810;28;20025;-72
2022/11/02 10:56:10;;;;;;;18.48;2.85;;;;;;;17.86;49.96;101917.47;5046674;28;20029;-74
2022/11/02 10:58:39;;;;;;;20.88;2.88;;;;;;;17.85;51.78;101934.41;5044049;28;20029;-65
2022/11/02 11:01:10;;;;;;;18.30;2.95;;;;;;;18.37;50.90;101915.19;5046074;28;20073;-65
2022/11/02 11:03:54;;;;;;;18.27;2.80;;;;;;;19.05;49.45;101935.81;5044672;28;20223;-65
2022/11/02 11:06:22;;;;;;;18.02;2.72;;;;;;;18.71;47.21;101925.53;5041116;28;20061;-65
2022/11/02 11:08:52;;;;;;;14.88;2.70;;;;;;;17.98;49.47;101930.75;5042707;28;20033;-65
2022/11/02 11:11:27;;;;;;;19.05;3.20;;;;;;;18.74;48.75;101933.50;5039456;28;20025;-65
2022/11/02 11:14:06;;;;;;;18.17;3.08;;;;;;;19.56;45.52;101931.50;5040103;28;20057;-65
2022/11/02 11:16:36;;;;;;;16.85;2.65;;;;;;;19.51;44.47;101934.22;5045506;28;20036;-65
2022/11/02 11:19:03;;;;;;;17.70;2.78;;;;;;;19.69;43.79;101927.72;5044712;28;20031;-65
2022/11/02 11:21:35;;;;;;;17.13;2.63;;;;;;;20.04;44.06;101928.94;5045851;28;20036;-64
2022/11/02 11:24:26;;;;;;;15.77;2.53;;;;;;;20.12;45.15;101926.97;5044340;28;20108;-65
2022/11/02 11:27:10;;;;;;;14.80;2.70;;;;;;;20.99;44.59;101925.28;5039757;28;20037;-65
2022/11/02 11:29:38;;;;;;;16.02;2.75;;;;;;;21.70;40.53;101926.34;5043190;28;20034;-65
2022/11/02 11:32:14;;;;;;;18.45;3.13;;;;;;;21.14;40.36;101924.91;5044712;28;20021;-65